sensor_id;sensor_type;location;lat;lon;timestamp;P1;durP1;ratioP1;P2;durP2;ratioP2
84925;SDS011;75187;48.190;16.294;2024-03-02T00:02:12;58.30;;;30.15;;
84925;SDS011;75187;48.190;16.294;2024-03-02T00:04:39;57.50;;;28.42;;
84925;SDS011;75187;48.190;16.294;2024-03-02T00:07:04;60.08;;;29.85;;
84925;SDS011;75187;48.190;16.294;2024-03-02T00:09:30;58.28;;;29.35;;
84925;SDS011;75187;48.190;16.294;2024-03-02T00:11:56;52.83;;;27.95;;
84925;SDS011;75187;48.190;16.294;2024-03-02T00:14:21;54.03;;;28.13;;
84925;SDS011;75187;48.190;16.294;2024-03-02T00:16:49;53.80;;;28.05;;
84925;SDS011;75187;48.190;16.294;2024-03-02T00:19:14;58.08;;;28.83;;
84925;SDS011;75187;48.190;16.294;2024-03-02T00:21:40;55.35;;;28.10;;
84925;SDS011;75187;48.190;16.294;2024-03-02T00:24:16;53.67;;;28.85;;
84925;SDS011;75187;48.190;16.294;2024-03-02T00:26:50;53.10;;;27.83;;
84925;SDS011;75187;48.190;16.294;2024-03-02T00:29:15;56.55;;;28.98;;
84925;SDS011;75187;48.190;16.294;2024-03-02T00:31:44;50.53;;;27.90;;
84925;SDS011;75187;48.190;16.294;2024-03-02T00:34:09;55.08;;;28.23;;
84925;SDS011;75187;48.190;16.294;2024-03-02T00:36:38;51.67;;;27.17;;
84925;SDS011;75187;48.190;16.294;2024-03-02T00:39:04;47.45;;;25.85;;
84925;SDS011;75187;48.190;16.294;2024-03-02T00:41:32;52.88;;;27.35;;
84925;SDS011;75187;48.190;16.294;2024-03-02T00:44:02;51.72;;;27.88;;
84925;SDS011;75187;48.190;16.294;2024-03-02T00:46:38;57.05;;;29.52;;
84925;SDS011;75187;48.190;16.294;2024-03-02T00:49:11;52.65;;;27.75;;
84925;SDS011;75187;48.190;16.294;2024-03-02T00:51:37;53.53;;;28.13;;
84925;SDS011;75187;48.190;16.294;2024-03-02T00:54:07;52.80;;;28.25;;
84925;SDS011;75187;48.190;16.294;2024-03-02T00:56:34;50.13;;;26.92;;
84925;SDS011;75187;48.190;16.294;2024-03-02T00:59:00;52.28;;;28.10;;
84925;SDS011;75187;48.190;16.294;2024-03-02T01:01:25;52.58;;;26.90;;
84925;SDS011;75187;48.190;16.294;2024-03-02T01:03:51;51.88;;;26.73;;
84925;SDS011;75187;48.190;16.294;2024-03-02T01:06:17;50.05;;;27.55;;
84925;SDS011;75187;48.190;16.294;2024-03-02T01:08:42;48.63;;;26.67;;
84925;SDS011;75187;48.190;16.294;2024-03-02T01:11:08;47.25;;;24.92;;
84925;SDS011;75187;48.190;16.294;2024-03-02T01:13:34;54.70;;;26.45;;
84925;SDS011;75187;48.190;16.294;2024-03-02T01:15:59;49.15;;;25.85;;
84925;SDS011;75187;48.190;16.294;2024-03-02T01:18:26;51.42;;;26.80;;
84925;SDS011;75187;48.190;16.294;2024-03-02T01:20:51;50.40;;;26.45;;
84925;SDS011;75187;48.190;16.294;2024-03-02T01:23:18;53.08;;;27.33;;
84925;SDS011;75187;48.190;16.294;2024-03-02T01:25:44;51.42;;;26.30;;
84925;SDS011;75187;48.190;16.294;2024-03-02T01:28:11;51.65;;;26.98;;
84925;SDS011;75187;48.190;16.294;2024-03-02T01:30:36;50.35;;;26.58;;
84925;SDS011;75187;48.190;16.294;2024-03-02T01:33:02;51.67;;;26.70;;
84925;SDS011;75187;48.190;16.294;2024-03-02T01:35:27;53.55;;;27.85;;
84925;SDS011;75187;48.190;16.294;2024-03-02T01:37:53;57.17;;;28.98;;
84925;SDS011;75187;48.190;16.294;2024-03-02T01:40:18;53.20;;;27.70;;
84925;SDS011;75187;48.190;16.294;2024-03-02T01:42:44;55.80;;;28.65;;
84925;SDS011;75187;48.190;16.294;2024-03-02T01:45:09;53.45;;;27.60;;
84925;SDS011;75187;48.190;16.294;2024-03-02T01:47:35;50.35;;;27.73;;
84925;SDS011;75187;48.190;16.294;2024-03-02T01:50:00;50.25;;;27.02;;
84925;SDS011;75187;48.190;16.294;2024-03-02T01:52:26;48.90;;;26.38;;
84925;SDS011;75187;48.190;16.294;2024-03-02T01:54:52;47.85;;;26.23;;
84925;SDS011;75187;48.190;16.294;2024-03-02T01:57:18;50.80;;;26.77;;
84925;SDS011;75187;48.190;16.294;2024-03-02T01:59:45;54.53;;;27.48;;
84925;SDS011;75187;48.190;16.294;2024-03-02T02:02:13;53.42;;;29.70;;
84925;SDS011;75187;48.190;16.294;2024-03-02T02:04:39;53.88;;;27.05;;
84925;SDS011;75187;48.190;16.294;2024-03-02T02:07:04;55.30;;;28.98;;
84925;SDS011;75187;48.190;16.294;2024-03-02T02:09:29;53.10;;;28.13;;
84925;SDS011;75187;48.190;16.294;2024-03-02T02:11:55;59.83;;;29.48;;
84925;SDS011;75187;48.190;16.294;2024-03-02T02:14:20;59.38;;;30.63;;
84925;SDS011;75187;48.190;16.294;2024-03-02T02:16:46;57.30;;;28.70;;
84925;SDS011;75187;48.190;16.294;2024-03-02T02:19:11;57.40;;;28.65;;
84925;SDS011;75187;48.190;16.294;2024-03-02T02:21:36;56.13;;;28.23;;
84925;SDS011;75187;48.190;16.294;2024-03-02T02:24:02;58.57;;;28.63;;
84925;SDS011;75187;48.190;16.294;2024-03-02T02:26:29;61.10;;;29.67;;
84925;SDS011;75187;48.190;16.294;2024-03-02T02:28:54;68.53;;;31.33;;
84925;SDS011;75187;48.190;16.294;2024-03-02T02:31:20;61.88;;;28.70;;
84925;SDS011;75187;48.190;16.294;2024-03-02T02:33:45;67.27;;;30.57;;
84925;SDS011;75187;48.190;16.294;2024-03-02T02:36:10;67.28;;;30.67;;
84925;SDS011;75187;48.190;16.294;2024-03-02T02:38:37;69.95;;;30.67;;
84925;SDS011;75187;48.190;16.294;2024-03-02T02:41:05;61.80;;;30.08;;
84925;SDS011;75187;48.190;16.294;2024-03-02T02:43:31;64.82;;;30.63;;
84925;SDS011;75187;48.190;16.294;2024-03-02T02:45:56;65.07;;;29.10;;
84925;SDS011;75187;48.190;16.294;2024-03-02T02:48:22;71.23;;;31.30;;
84925;SDS011;75187;48.190;16.294;2024-03-02T02:50:47;70.57;;;32.03;;
84925;SDS011;75187;48.190;16.294;2024-03-02T02:53:12;64.85;;;29.33;;
84925;SDS011;75187;48.190;16.294;2024-03-02T02:55:39;69.38;;;31.48;;
84925;SDS011;75187;48.190;16.294;2024-03-02T02:58:08;68.20;;;30.42;;
84925;SDS011;75187;48.190;16.294;2024-03-02T03:00:36;59.40;;;29.52;;
84925;SDS011;75187;48.190;16.294;2024-03-02T03:03:02;65.68;;;29.00;;
84925;SDS011;75187;48.190;16.294;2024-03-02T03:05:27;67.63;;;30.33;;
84925;SDS011;75187;48.190;16.294;2024-03-02T03:07:53;67.35;;;29.77;;
84925;SDS011;75187;48.190;16.294;2024-03-02T03:10:19;65.72;;;30.13;;
84925;SDS011;75187;48.190;16.294;2024-03-02T03:12:47;63.95;;;30.40;;
84925;SDS011;75187;48.190;16.294;2024-03-02T03:15:12;56.10;;;27.85;;
84925;SDS011;75187;48.190;16.294;2024-03-02T03:17:39;61.22;;;29.35;;
84925;SDS011;75187;48.190;16.294;2024-03-02T03:20:05;60.65;;;28.95;;
84925;SDS011;75187;48.190;16.294;2024-03-02T03:22:31;61.67;;;28.17;;
84925;SDS011;75187;48.190;16.294;2024-03-02T03:24:57;51.72;;;26.10;;
84925;SDS011;75187;48.190;16.294;2024-03-02T03:27:22;52.47;;;25.33;;
84925;SDS011;75187;48.190;16.294;2024-03-02T03:29:47;57.15;;;27.60;;
84925;SDS011;75187;48.190;16.294;2024-03-02T03:32:13;60.05;;;28.35;;
84925;SDS011;75187;48.190;16.294;2024-03-02T03:34:38;52.90;;;25.80;;
84925;SDS011;75187;48.190;16.294;2024-03-02T03:37:04;56.75;;;27.48;;
84925;SDS011;75187;48.190;16.294;2024-03-02T03:39:29;52.17;;;27.40;;
84925;SDS011;75187;48.190;16.294;2024-03-02T03:41:54;58.80;;;27.80;;
84925;SDS011;75187;48.190;16.294;2024-03-02T03:44:20;58.53;;;26.87;;
84925;SDS011;75187;48.190;16.294;2024-03-02T03:46:45;61.80;;;28.80;;
84925;SDS011;75187;48.190;16.294;2024-03-02T03:49:10;58.47;;;28.38;;
84925;SDS011;75187;48.190;16.294;2024-03-02T03:51:36;56.20;;;26.88;;
84925;SDS011;75187;48.190;16.294;2024-03-02T03:54:01;62.17;;;28.13;;
84925;SDS011;75187;48.190;16.294;2024-03-02T03:56:27;59.08;;;27.73;;
84925;SDS011;75187;48.190;16.294;2024-03-02T03:58:52;55.63;;;27.17;;
84925;SDS011;75187;48.190;16.294;2024-03-02T04:01:17;60.78;;;28.27;;
84925;SDS011;75187;48.190;16.294;2024-03-02T04:03:43;59.22;;;28.23;;
84925;SDS011;75187;48.190;16.294;2024-03-02T04:06:08;60.72;;;27.77;;
84925;SDS011;75187;48.190;16.294;2024-03-02T04:08:34;61.85;;;28.52;;
84925;SDS011;75187;48.190;16.294;2024-03-02T04:10:59;60.25;;;27.90;;
84925;SDS011;75187;48.190;16.294;2024-03-02T04:13:24;52.15;;;25.63;;
84925;SDS011;75187;48.190;16.294;2024-03-02T04:15:50;49.15;;;25.40;;
84925;SDS011;75187;48.190;16.294;2024-03-02T04:18:15;55.67;;;26.60;;
84925;SDS011;75187;48.190;16.294;2024-03-02T04:20:41;57.65;;;24.77;;
84925;SDS011;75187;48.190;16.294;2024-03-02T04:23:06;55.67;;;26.67;;
84925;SDS011;75187;48.190;16.294;2024-03-02T04:25:32;49.92;;;24.65;;
84925;SDS011;75187;48.190;16.294;2024-03-02T04:27:58;51.60;;;25.38;;
84925;SDS011;75187;48.190;16.294;2024-03-02T04:30:23;56.72;;;26.65;;
84925;SDS011;75187;48.190;16.294;2024-03-02T04:32:48;54.28;;;24.48;;
84925;SDS011;75187;48.190;16.294;2024-03-02T04:35:14;58.70;;;25.37;;
84925;SDS011;75187;48.190;16.294;2024-03-02T04:37:39;54.60;;;25.80;;
84925;SDS011;75187;48.190;16.294;2024-03-02T04:40:05;54.23;;;25.53;;
84925;SDS011;75187;48.190;16.294;2024-03-02T04:42:34;55.60;;;26.52;;
84925;SDS011;75187;48.190;16.294;2024-03-02T04:44:59;54.33;;;25.25;;
84925;SDS011;75187;48.190;16.294;2024-03-02T04:47:25;56.42;;;26.48;;
84925;SDS011;75187;48.190;16.294;2024-03-02T04:49:50;56.63;;;25.92;;
84925;SDS011;75187;48.190;16.294;2024-03-02T04:52:16;53.45;;;25.02;;
84925;SDS011;75187;48.190;16.294;2024-03-02T04:54:42;46.58;;;24.02;;
84925;SDS011;75187;48.190;16.294;2024-03-02T04:57:26;51.20;;;23.13;;
84925;SDS011;75187;48.190;16.294;2024-03-02T04:59:51;51.13;;;23.30;;
84925;SDS011;75187;48.190;16.294;2024-03-02T05:02:17;48.17;;;24.20;;
84925;SDS011;75187;48.190;16.294;2024-03-02T05:04:42;53.42;;;25.98;;
84925;SDS011;75187;48.190;16.294;2024-03-02T05:07:07;51.35;;;24.58;;
84925;SDS011;75187;48.190;16.294;2024-03-02T05:09:33;51.43;;;25.37;;
84925;SDS011;75187;48.190;16.294;2024-03-02T05:11:58;52.30;;;25.17;;
84925;SDS011;75187;48.190;16.294;2024-03-02T05:14:47;51.10;;;23.80;;
84925;SDS011;75187;48.190;16.294;2024-03-02T05:17:13;49.47;;;23.17;;
84925;SDS011;75187;48.190;16.294;2024-03-02T05:19:38;48.85;;;23.30;;
84925;SDS011;75187;48.190;16.294;2024-03-02T05:22:03;49.40;;;23.27;;
84925;SDS011;75187;48.190;16.294;2024-03-02T05:24:29;39.85;;;21.42;;
84925;SDS011;75187;48.190;16.294;2024-03-02T05:26:55;43.03;;;21.42;;
84925;SDS011;75187;48.190;16.294;2024-03-02T05:29:20;46.47;;;21.75;;
84925;SDS011;75187;48.190;16.294;2024-03-02T05:31:46;48.45;;;24.40;;
84925;SDS011;75187;48.190;16.294;2024-03-02T05:34:12;42.92;;;21.98;;
84925;SDS011;75187;48.190;16.294;2024-03-02T05:36:37;44.63;;;22.25;;
84925;SDS011;75187;48.190;16.294;2024-03-02T05:39:04;42.30;;;21.92;;
84925;SDS011;75187;48.190;16.294;2024-03-02T05:41:34;45.22;;;22.35;;
84925;SDS011;75187;48.190;16.294;2024-03-02T05:44:00;49.90;;;22.90;;
84925;SDS011;75187;48.190;16.294;2024-03-02T05:46:26;49.28;;;24.52;;
84925;SDS011;75187;48.190;16.294;2024-03-02T05:48:51;56.42;;;25.65;;
84925;SDS011;75187;48.190;16.294;2024-03-02T05:51:16;51.07;;;24.73;;
84925;SDS011;75187;48.190;16.294;2024-03-02T05:53:42;53.80;;;24.80;;
84925;SDS011;75187;48.190;16.294;2024-03-02T05:56:07;50.38;;;24.23;;
84925;SDS011;75187;48.190;16.294;2024-03-02T05:58:33;50.28;;;23.83;;
84925;SDS011;75187;48.190;16.294;2024-03-02T06:01:13;60.30;;;24.27;;
84925;SDS011;75187;48.190;16.294;2024-03-02T06:20:24;46.45;;;24.20;;
84925;SDS011;75187;48.190;16.294;2024-03-02T06:22:51;49.95;;;24.30;;
84925;SDS011;75187;48.190;16.294;2024-03-02T06:25:17;43.43;;;23.70;;
84925;SDS011;75187;48.190;16.294;2024-03-02T06:27:42;74.87;;;25.83;;
84925;SDS011;75187;48.190;16.294;2024-03-02T06:30:07;48.70;;;26.13;;
84925;SDS011;75187;48.190;16.294;2024-03-02T06:32:33;50.40;;;26.58;;
84925;SDS011;75187;48.190;16.294;2024-03-02T06:34:59;46.30;;;25.10;;
84925;SDS011;75187;48.190;16.294;2024-03-02T06:37:24;38.45;;;20.75;;
84925;SDS011;75187;48.190;16.294;2024-03-02T06:39:50;34.40;;;21.13;;
84925;SDS011;75187;48.190;16.294;2024-03-02T06:42:15;43.10;;;21.17;;
84925;SDS011;75187;48.190;16.294;2024-03-02T06:44:40;39.90;;;21.30;;
84925;SDS011;75187;48.190;16.294;2024-03-02T06:47:06;59.40;;;24.40;;
84925;SDS011;75187;48.190;16.294;2024-03-02T06:49:31;57.67;;;22.13;;
84925;SDS011;75187;48.190;16.294;2024-03-02T06:51:56;40.73;;;22.17;;
84925;SDS011;75187;48.190;16.294;2024-03-02T06:54:22;47.00;;;23.50;;
84925;SDS011;75187;48.190;16.294;2024-03-02T06:56:47;43.50;;;22.30;;
84925;SDS011;75187;48.190;16.294;2024-03-02T06:59:12;63.07;;;24.40;;
84925;SDS011;75187;48.190;16.294;2024-03-02T07:01:38;74.07;;;23.80;;
84925;SDS011;75187;48.190;16.294;2024-03-02T07:04:03;84.57;;;27.05;;
84925;SDS011;75187;48.190;16.294;2024-03-02T07:06:31;67.78;;;25.15;;
84925;SDS011;75187;48.190;16.294;2024-03-02T07:08:57;63.80;;;26.95;;
84925;SDS011;75187;48.190;16.294;2024-03-02T07:11:22;72.87;;;28.17;;
84925;SDS011;75187;48.190;16.294;2024-03-02T07:13:47;64.03;;;28.23;;
84925;SDS011;75187;48.190;16.294;2024-03-02T07:16:13;80.93;;;29.23;;
84925;SDS011;75187;48.190;16.294;2024-03-02T07:18:53;91.43;;;29.70;;
84925;SDS011;75187;48.190;16.294;2024-03-02T07:21:20;101.22;;;32.08;;
84925;SDS011;75187;48.190;16.294;2024-03-02T07:23:47;62.10;;;28.65;;
84925;SDS011;75187;48.190;16.294;2024-03-02T07:26:12;62.53;;;29.45;;
84925;SDS011;75187;48.190;16.294;2024-03-02T07:28:39;62.05;;;27.65;;
84925;SDS011;75187;48.190;16.294;2024-03-02T07:31:05;61.88;;;28.45;;
84925;SDS011;75187;48.190;16.294;2024-03-02T07:33:31;80.10;;;31.00;;
84925;SDS011;75187;48.190;16.294;2024-03-02T07:35:57;76.85;;;31.17;;
84925;SDS011;75187;48.190;16.294;2024-03-02T07:38:24;70.65;;;29.80;;
84925;SDS011;75187;48.190;16.294;2024-03-02T07:40:50;72.40;;;28.88;;
84925;SDS011;75187;48.190;16.294;2024-03-02T07:43:16;67.85;;;28.05;;
84925;SDS011;75187;48.190;16.294;2024-03-02T07:45:42;60.70;;;29.00;;
84925;SDS011;75187;48.190;16.294;2024-03-02T07:48:07;72.20;;;32.03;;
84925;SDS011;75187;48.190;16.294;2024-03-02T07:50:33;64.88;;;30.02;;
84925;SDS011;75187;48.190;16.294;2024-03-02T07:53:00;69.28;;;31.23;;
84925;SDS011;75187;48.190;16.294;2024-03-02T07:55:26;61.00;;;29.75;;
84925;SDS011;75187;48.190;16.294;2024-03-02T07:57:51;59.23;;;28.50;;
84925;SDS011;75187;48.190;16.294;2024-03-02T08:00:16;63.70;;;28.45;;
84925;SDS011;75187;48.190;16.294;2024-03-02T08:02:42;53.72;;;25.77;;
84925;SDS011;75187;48.190;16.294;2024-03-02T08:05:07;48.17;;;24.02;;
84925;SDS011;75187;48.190;16.294;2024-03-02T08:07:33;47.97;;;23.95;;
84925;SDS011;75187;48.190;16.294;2024-03-02T08:09:59;43.78;;;21.05;;
84925;SDS011;75187;48.190;16.294;2024-03-02T08:12:24;43.50;;;22.48;;
84925;SDS011;75187;48.190;16.294;2024-03-02T08:14:50;41.38;;;22.50;;
84925;SDS011;75187;48.190;16.294;2024-03-02T08:17:15;53.35;;;25.92;;
84925;SDS011;75187;48.190;16.294;2024-03-02T08:19:41;44.93;;;24.40;;
84925;SDS011;75187;48.190;16.294;2024-03-02T08:22:06;53.33;;;26.13;;
84925;SDS011;75187;48.190;16.294;2024-03-02T08:24:32;47.28;;;25.48;;
84925;SDS011;75187;48.190;16.294;2024-03-02T08:26:58;52.15;;;27.83;;
84925;SDS011;75187;48.190;16.294;2024-03-02T08:29:24;44.55;;;24.95;;
84925;SDS011;75187;48.190;16.294;2024-03-02T08:31:50;43.45;;;22.05;;
84925;SDS011;75187;48.190;16.294;2024-03-02T08:34:15;49.13;;;26.55;;
84925;SDS011;75187;48.190;16.294;2024-03-02T08:36:41;39.00;;;22.02;;
84925;SDS011;75187;48.190;16.294;2024-03-02T08:39:07;47.30;;;24.95;;
84925;SDS011;75187;48.190;16.294;2024-03-02T08:41:40;48.03;;;25.65;;
84925;SDS011;75187;48.190;16.294;2024-03-02T08:44:06;41.28;;;23.42;;
84925;SDS011;75187;48.190;16.294;2024-03-02T08:46:32;37.58;;;21.30;;
84925;SDS011;75187;48.190;16.294;2024-03-02T08:48:57;41.83;;;22.52;;
84925;SDS011;75187;48.190;16.294;2024-03-02T08:51:23;41.33;;;22.92;;
84925;SDS011;75187;48.190;16.294;2024-03-02T08:53:48;41.70;;;21.83;;
84925;SDS011;75187;48.190;16.294;2024-03-02T08:56:13;41.03;;;22.10;;
84925;SDS011;75187;48.190;16.294;2024-03-02T08:58:40;46.10;;;22.55;;
84925;SDS011;75187;48.190;16.294;2024-03-02T09:01:06;54.85;;;28.85;;
84925;SDS011;75187;48.190;16.294;2024-03-02T09:03:33;47.17;;;23.25;;
84925;SDS011;75187;48.190;16.294;2024-03-02T09:05:59;50.55;;;25.92;;
84925;SDS011;75187;48.190;16.294;2024-03-02T09:08:25;52.55;;;26.75;;
84925;SDS011;75187;48.190;16.294;2024-03-02T09:10:51;50.80;;;26.38;;
84925;SDS011;75187;48.190;16.294;2024-03-02T09:13:17;46.47;;;25.13;;
84925;SDS011;75187;48.190;16.294;2024-03-02T09:15:42;53.70;;;27.60;;
84925;SDS011;75187;48.190;16.294;2024-03-02T09:18:09;56.10;;;26.40;;
84925;SDS011;75187;48.190;16.294;2024-03-02T09:20:35;57.95;;;28.02;;
84925;SDS011;75187;48.190;16.294;2024-03-02T09:23:00;54.50;;;25.83;;
84925;SDS011;75187;48.190;16.294;2024-03-02T09:25:26;55.30;;;25.30;;
84925;SDS011;75187;48.190;16.294;2024-03-02T09:27:51;47.47;;;24.17;;
84925;SDS011;75187;48.190;16.294;2024-03-02T09:30:16;46.58;;;25.42;;
84925;SDS011;75187;48.190;16.294;2024-03-02T09:32:42;47.97;;;25.92;;
84925;SDS011;75187;48.190;16.294;2024-03-02T09:35:07;49.40;;;25.58;;
84925;SDS011;75187;48.190;16.294;2024-03-02T09:37:34;56.97;;;28.33;;
84925;SDS011;75187;48.190;16.294;2024-03-02T09:39:59;54.75;;;26.10;;
84925;SDS011;75187;48.190;16.294;2024-03-02T09:42:25;57.30;;;27.85;;
84925;SDS011;75187;48.190;16.294;2024-03-02T09:44:51;65.47;;;29.13;;
84925;SDS011;75187;48.190;16.294;2024-03-02T09:47:17;61.53;;;29.60;;
84925;SDS011;75187;48.190;16.294;2024-03-02T09:49:42;70.88;;;30.92;;
84925;SDS011;75187;48.190;16.294;2024-03-02T09:52:08;64.10;;;32.03;;
84925;SDS011;75187;48.190;16.294;2024-03-02T09:54:35;73.22;;;33.25;;
84925;SDS011;75187;48.190;16.294;2024-03-02T09:57:01;70.43;;;29.90;;
84925;SDS011;75187;48.190;16.294;2024-03-02T09:59:28;72.57;;;32.20;;
84925;SDS011;75187;48.190;16.294;2024-03-02T10:02:00;69.28;;;31.60;;
84925;SDS011;75187;48.190;16.294;2024-03-02T10:04:28;76.53;;;34.70;;
84925;SDS011;75187;48.190;16.294;2024-03-02T10:09:38;68.78;;;30.42;;
84925;SDS011;75187;48.190;16.294;2024-03-02T10:12:05;64.05;;;30.52;;
84925;SDS011;75187;48.190;16.294;2024-03-02T10:14:31;65.15;;;29.85;;
84925;SDS011;75187;48.190;16.294;2024-03-02T10:17:04;72.07;;;33.03;;
84925;SDS011;75187;48.190;16.294;2024-03-02T10:19:30;66.90;;;32.40;;
84925;SDS011;75187;48.190;16.294;2024-03-02T10:22:03;67.07;;;29.77;;
84925;SDS011;75187;48.190;16.294;2024-03-02T10:24:43;70.95;;;32.30;;
84925;SDS011;75187;48.190;16.294;2024-03-02T10:27:10;66.78;;;31.38;;
84925;SDS011;75187;48.190;16.294;2024-03-02T10:29:41;70.57;;;31.73;;
84925;SDS011;75187;48.190;16.294;2024-03-02T10:32:10;67.35;;;32.08;;
84925;SDS011;75187;48.190;16.294;2024-03-02T10:37:02;59.80;;;28.67;;
84925;SDS011;75187;48.190;16.294;2024-03-02T10:39:28;66.78;;;30.80;;
84925;SDS011;75187;48.190;16.294;2024-03-02T10:41:54;62.28;;;31.95;;
84925;SDS011;75187;48.190;16.294;2024-03-02T10:44:20;72.82;;;33.45;;
84925;SDS011;75187;48.190;16.294;2024-03-02T10:46:47;65.57;;;31.83;;
84925;SDS011;75187;48.190;16.294;2024-03-02T10:49:15;68.88;;;30.23;;
84925;SDS011;75187;48.190;16.294;2024-03-02T10:51:42;63.47;;;30.45;;
84925;SDS011;75187;48.190;16.294;2024-03-02T10:54:07;66.90;;;31.45;;
84925;SDS011;75187;48.190;16.294;2024-03-02T10:59:11;56.15;;;28.83;;
84925;SDS011;75187;48.190;16.294;2024-03-02T11:01:55;58.53;;;30.63;;
84925;SDS011;75187;48.190;16.294;2024-03-02T11:04:26;61.85;;;28.88;;
84925;SDS011;75187;48.190;16.294;2024-03-02T11:06:54;54.72;;;29.38;;
84925;SDS011;75187;48.190;16.294;2024-03-02T11:09:26;59.63;;;30.52;;
84925;SDS011;75187;48.190;16.294;2024-03-02T11:12:00;59.08;;;29.38;;
84925;SDS011;75187;48.190;16.294;2024-03-02T11:14:31;65.53;;;30.10;;
84925;SDS011;75187;48.190;16.294;2024-03-02T11:16:58;57.75;;;29.35;;
84925;SDS011;75187;48.190;16.294;2024-03-02T11:19:26;64.97;;;34.55;;
84925;SDS011;75187;48.190;16.294;2024-03-02T11:21:52;71.22;;;34.50;;
84925;SDS011;75187;48.190;16.294;2024-03-02T11:26:50;62.75;;;30.25;;
84925;SDS011;75187;48.190;16.294;2024-03-02T11:32:00;59.45;;;30.08;;
84925;SDS011;75187;48.190;16.294;2024-03-02T11:34:30;61.95;;;30.02;;
84925;SDS011;75187;48.190;16.294;2024-03-02T11:36:55;70.28;;;38.25;;
84925;SDS011;75187;48.190;16.294;2024-03-02T11:39:21;58.65;;;32.00;;
84925;SDS011;75187;48.190;16.294;2024-03-02T11:41:46;58.97;;;31.33;;
84925;SDS011;75187;48.190;16.294;2024-03-02T11:44:11;52.80;;;27.80;;
84925;SDS011;75187;48.190;16.294;2024-03-02T11:46:39;60.35;;;30.58;;
84925;SDS011;75187;48.190;16.294;2024-03-02T11:49:04;61.03;;;29.58;;
84925;SDS011;75187;48.190;16.294;2024-03-02T11:51:30;56.75;;;30.80;;
84925;SDS011;75187;48.190;16.294;2024-03-02T11:54:00;53.97;;;27.73;;
84925;SDS011;75187;48.190;16.294;2024-03-02T11:56:27;63.05;;;32.28;;
84925;SDS011;75187;48.190;16.294;2024-03-02T11:58:55;60.92;;;34.10;;
84925;SDS011;75187;48.190;16.294;2024-03-02T12:01:22;65.50;;;35.30;;
84925;SDS011;75187;48.190;16.294;2024-03-02T12:03:48;61.72;;;33.75;;
84925;SDS011;75187;48.190;16.294;2024-03-02T12:06:14;60.30;;;34.45;;
84925;SDS011;75187;48.190;16.294;2024-03-02T12:08:40;57.63;;;30.80;;
84925;SDS011;75187;48.190;16.294;2024-03-02T12:11:05;62.40;;;31.10;;
84925;SDS011;75187;48.190;16.294;2024-03-02T12:13:31;71.32;;;34.10;;
84925;SDS011;75187;48.190;16.294;2024-03-02T12:15:58;59.38;;;32.15;;
84925;SDS011;75187;48.190;16.294;2024-03-02T12:18:23;58.13;;;33.60;;
84925;SDS011;75187;48.190;16.294;2024-03-02T12:20:49;58.85;;;33.10;;
84925;SDS011;75187;48.190;16.294;2024-03-02T12:23:22;59.50;;;32.95;;
84925;SDS011;75187;48.190;16.294;2024-03-02T12:25:48;60.30;;;32.75;;
84925;SDS011;75187;48.190;16.294;2024-03-02T12:28:13;62.60;;;31.23;;
84925;SDS011;75187;48.190;16.294;2024-03-02T12:30:39;59.38;;;33.85;;
84925;SDS011;75187;48.190;16.294;2024-03-02T12:33:04;64.97;;;35.38;;
84925;SDS011;75187;48.190;16.294;2024-03-02T12:35:30;65.20;;;35.80;;
84925;SDS011;75187;48.190;16.294;2024-03-02T12:37:56;62.83;;;33.00;;
84925;SDS011;75187;48.190;16.294;2024-03-02T12:40:22;58.58;;;32.78;;
84925;SDS011;75187;48.190;16.294;2024-03-02T12:42:47;73.38;;;39.88;;
84925;SDS011;75187;48.190;16.294;2024-03-02T12:45:14;66.35;;;36.05;;
84925;SDS011;75187;48.190;16.294;2024-03-02T12:47:40;59.92;;;30.55;;
84925;SDS011;75187;48.190;16.294;2024-03-02T12:50:07;55.15;;;31.38;;
84925;SDS011;75187;48.190;16.294;2024-03-02T12:52:33;61.33;;;34.47;;
84925;SDS011;75187;48.190;16.294;2024-03-02T12:55:03;56.45;;;33.05;;
84925;SDS011;75187;48.190;16.294;2024-03-02T12:57:30;56.38;;;30.10;;
84925;SDS011;75187;48.190;16.294;2024-03-02T13:00:02;57.40;;;32.92;;
84925;SDS011;75187;48.190;16.294;2024-03-02T13:02:38;61.05;;;33.75;;
84925;SDS011;75187;48.190;16.294;2024-03-02T13:05:06;54.42;;;31.40;;
84925;SDS011;75187;48.190;16.294;2024-03-02T13:07:36;53.78;;;31.65;;
84925;SDS011;75187;48.190;16.294;2024-03-02T13:10:01;55.72;;;30.67;;
84925;SDS011;75187;48.190;16.294;2024-03-02T13:12:28;55.08;;;33.65;;
84925;SDS011;75187;48.190;16.294;2024-03-02T13:14:55;56.55;;;32.15;;
84925;SDS011;75187;48.190;16.294;2024-03-02T13:17:23;52.20;;;32.17;;
84925;SDS011;75187;48.190;16.294;2024-03-02T13:19:52;59.88;;;32.20;;
84925;SDS011;75187;48.190;16.294;2024-03-02T13:22:18;54.50;;;30.42;;
84925;SDS011;75187;48.190;16.294;2024-03-02T13:24:44;52.97;;;30.75;;
84925;SDS011;75187;48.190;16.294;2024-03-02T13:27:09;48.15;;;28.30;;
84925;SDS011;75187;48.190;16.294;2024-03-02T13:29:35;53.55;;;30.13;;
84925;SDS011;75187;48.190;16.294;2024-03-02T13:32:00;52.03;;;29.48;;
84925;SDS011;75187;48.190;16.294;2024-03-02T13:34:26;47.30;;;28.98;;
84925;SDS011;75187;48.190;16.294;2024-03-02T13:36:51;50.55;;;30.40;;
84925;SDS011;75187;48.190;16.294;2024-03-02T13:39:16;50.23;;;27.03;;
84925;SDS011;75187;48.190;16.294;2024-03-02T13:41:42;46.73;;;28.53;;
84925;SDS011;75187;48.190;16.294;2024-03-02T13:44:10;47.90;;;28.00;;
84925;SDS011;75187;48.190;16.294;2024-03-02T13:46:35;45.25;;;27.63;;
84925;SDS011;75187;48.190;16.294;2024-03-02T13:49:00;45.20;;;28.50;;
84925;SDS011;75187;48.190;16.294;2024-03-02T13:51:26;43.88;;;27.23;;
84925;SDS011;75187;48.190;16.294;2024-03-02T13:53:52;46.72;;;26.75;;
84925;SDS011;75187;48.190;16.294;2024-03-02T13:56:17;45.78;;;27.42;;
84925;SDS011;75187;48.190;16.294;2024-03-02T13:58:43;40.20;;;25.20;;
84925;SDS011;75187;48.190;16.294;2024-03-02T14:01:11;46.00;;;28.65;;
84925;SDS011;75187;48.190;16.294;2024-03-02T14:03:36;44.97;;;26.50;;
84925;SDS011;75187;48.190;16.294;2024-03-02T14:06:02;40.33;;;23.73;;
84925;SDS011;75187;48.190;16.294;2024-03-02T14:08:28;43.65;;;26.50;;
84925;SDS011;75187;48.190;16.294;2024-03-02T14:10:53;42.63;;;24.83;;
84925;SDS011;75187;48.190;16.294;2024-03-02T14:13:20;43.08;;;25.85;;
84925;SDS011;75187;48.190;16.294;2024-03-02T14:15:45;46.25;;;28.08;;
84925;SDS011;75187;48.190;16.294;2024-03-02T14:18:11;42.17;;;25.55;;
84925;SDS011;75187;48.190;16.294;2024-03-02T14:20:36;43.45;;;25.90;;
84925;SDS011;75187;48.190;16.294;2024-03-02T14:23:02;46.05;;;27.38;;
84925;SDS011;75187;48.190;16.294;2024-03-02T14:25:28;41.97;;;24.70;;
84925;SDS011;75187;48.190;16.294;2024-03-02T14:27:58;46.55;;;28.13;;
84925;SDS011;75187;48.190;16.294;2024-03-02T14:30:23;44.35;;;27.08;;
84925;SDS011;75187;48.190;16.294;2024-03-02T14:32:49;49.75;;;27.95;;
84925;SDS011;75187;48.190;16.294;2024-03-02T14:35:15;44.13;;;28.35;;